Terminal Aerodrome Forecast
Issued by NWS

Home | Current Version | Previous Version | Text Only | Print | Product List | Glossary On
Versions: 1 2 3 4 5 6 7 8 9 10 11 12 13 14
000
FTUS43 KGRR 291720
TAFLAN
TAF
KLAN 291720Z 2918/3018 23014G22KT P6SM VCTS BKN045CB
     FM292200 24012G20KT P6SM BKN045
     FM300000 25006KT P6SM BKN045
     FM300400 26007KT P6SM FEW050=

USA.gov is the U.S. government's official web portal to all federal, state and local government web resources and services.